sensor_id;sensor_type;location;lat;lon;timestamp;P1;durP1;ratioP1;P2;durP2;ratioP2
41043;SDS011;51680;49.806;18.774;2022-12-10T00:00:16;31.77;;;15.23;;
41043;SDS011;51680;49.806;18.774;2022-12-10T00:03:18;32.75;;;16.80;;
41043;SDS011;51680;49.806;18.774;2022-12-10T00:06:21;32.20;;;15.57;;
41043;SDS011;51680;49.806;18.774;2022-12-10T00:09:24;32.40;;;16.17;;
41043;SDS011;51680;49.806;18.774;2022-12-10T00:12:27;38.83;;;17.60;;
41043;SDS011;51680;49.806;18.774;2022-12-10T00:15:29;39.45;;;17.27;;
41043;SDS011;51680;49.806;18.774;2022-12-10T00:18:31;54.95;;;19.33;;
41043;SDS011;51680;49.806;18.774;2022-12-10T00:21:34;78.25;;;20.98;;
41043;SDS011;51680;49.806;18.774;2022-12-10T00:24:36;60.03;;;19.55;;
41043;SDS011;51680;49.806;18.774;2022-12-10T00:27:39;36.08;;;20.73;;
41043;SDS011;51680;49.806;18.774;2022-12-10T00:30:41;31.40;;;17.92;;
41043;SDS011;51680;49.806;18.774;2022-12-10T00:33:43;32.92;;;17.23;;
41043;SDS011;51680;49.806;18.774;2022-12-10T00:36:47;30.60;;;17.98;;
41043;SDS011;51680;49.806;18.774;2022-12-10T00:39:50;38.42;;;18.80;;
41043;SDS011;51680;49.806;18.774;2022-12-10T00:42:53;36.10;;;18.33;;
41043;SDS011;51680;49.806;18.774;2022-12-10T00:45:55;43.83;;;21.38;;
41043;SDS011;51680;49.806;18.774;2022-12-10T00:48:58;64.55;;;25.20;;
41043;SDS011;51680;49.806;18.774;2022-12-10T00:52:00;107.18;;;24.35;;
41043;SDS011;51680;49.806;18.774;2022-12-10T00:55:04;184.43;;;23.48;;
41043;SDS011;51680;49.806;18.774;2022-12-10T00:58:08;62.42;;;19.02;;
41043;SDS011;51680;49.806;18.774;2022-12-10T01:01:10;103.50;;;21.48;;
41043;SDS011;51680;49.806;18.774;2022-12-10T01:04:15;146.10;;;22.33;;
41043;SDS011;51680;49.806;18.774;2022-12-10T01:10:20;188.80;;;21.63;;
41043;SDS011;51680;49.806;18.774;2022-12-10T01:13:24;136.10;;;21.13;;
41043;SDS011;51680;49.806;18.774;2022-12-10T01:16:27;89.05;;;21.02;;
41043;SDS011;51680;49.806;18.774;2022-12-10T01:19:29;95.90;;;21.33;;
41043;SDS011;51680;49.806;18.774;2022-12-10T01:22:34;140.40;;;21.45;;
41043;SDS011;51680;49.806;18.774;2022-12-10T01:25:36;141.02;;;22.00;;
41043;SDS011;51680;49.806;18.774;2022-12-10T01:28:39;142.07;;;21.33;;
41043;SDS011;51680;49.806;18.774;2022-12-10T01:31:42;346.42;;;25.98;;
41043;SDS011;51680;49.806;18.774;2022-12-10T01:34:44;374.85;;;26.00;;
41043;SDS011;51680;49.806;18.774;2022-12-10T01:37:46;159.02;;;21.05;;
41043;SDS011;51680;49.806;18.774;2022-12-10T01:40:48;228.63;;;21.27;;
41043;SDS011;51680;49.806;18.774;2022-12-10T01:43:55;310.25;;;24.08;;
41043;SDS011;51680;49.806;18.774;2022-12-10T01:46:59;137.00;;;21.75;;
41043;SDS011;51680;49.806;18.774;2022-12-10T01:50:02;313.67;;;25.30;;
41043;SDS011;51680;49.806;18.774;2022-12-10T01:53:04;284.07;;;24.23;;
41043;SDS011;51680;49.806;18.774;2022-12-10T01:56:08;170.63;;;21.85;;
41043;SDS011;51680;49.806;18.774;2022-12-10T01:59:12;310.80;;;23.73;;
41043;SDS011;51680;49.806;18.774;2022-12-10T02:02:17;204.93;;;23.90;;
41043;SDS011;51680;49.806;18.774;2022-12-10T02:05:28;137.20;;;20.27;;
41043;SDS011;51680;49.806;18.774;2022-12-10T02:08:39;91.45;;;18.65;;
41043;SDS011;51680;49.806;18.774;2022-12-10T02:11:47;52.38;;;17.73;;
41043;SDS011;51680;49.806;18.774;2022-12-10T02:14:57;83.03;;;20.95;;
41043;SDS011;51680;49.806;18.774;2022-12-10T02:18:03;148.90;;;28.55;;
41043;SDS011;51680;49.806;18.774;2022-12-10T02:21:10;134.02;;;23.55;;
41043;SDS011;51680;49.806;18.774;2022-12-10T02:24:16;225.57;;;25.02;;
41043;SDS011;51680;49.806;18.774;2022-12-10T02:27:33;311.00;;;30.52;;
41043;SDS011;51680;49.806;18.774;2022-12-10T02:30:44;292.98;;;29.95;;
41043;SDS011;51680;49.806;18.774;2022-12-10T02:33:50;347.40;;;33.05;;
41043;SDS011;51680;49.806;18.774;2022-12-10T02:36:55;459.02;;;31.10;;
41043;SDS011;51680;49.806;18.774;2022-12-10T02:40:01;251.52;;;25.92;;
41043;SDS011;51680;49.806;18.774;2022-12-10T02:43:12;436.10;;;28.60;;
41043;SDS011;51680;49.806;18.774;2022-12-10T02:46:16;184.10;;;24.65;;
41043;SDS011;51680;49.806;18.774;2022-12-10T02:49:18;274.52;;;26.52;;
41043;SDS011;51680;49.806;18.774;2022-12-10T02:58:33;240.05;;;31.30;;
41043;SDS011;51680;49.806;18.774;2022-12-10T03:01:52;178.23;;;31.52;;
41043;SDS011;51680;49.806;18.774;2022-12-10T03:05:00;426.05;;;33.65;;
41043;SDS011;51680;49.806;18.774;2022-12-10T03:08:07;239.13;;;31.55;;
41043;SDS011;51680;49.806;18.774;2022-12-10T03:11:13;126.45;;;30.00;;
41043;SDS011;51680;49.806;18.774;2022-12-10T03:17:23;118.43;;;33.22;;
41043;SDS011;51680;49.806;18.774;2022-12-10T03:20:25;336.65;;;37.17;;
41043;SDS011;51680;49.806;18.774;2022-12-10T03:23:28;97.75;;;32.30;;
41043;SDS011;51680;49.806;18.774;2022-12-10T03:26:31;131.73;;;35.30;;
41043;SDS011;51680;49.806;18.774;2022-12-10T03:29:34;424.63;;;36.53;;
41043;SDS011;51680;49.806;18.774;2022-12-10T03:32:40;104.93;;;34.83;;
41043;SDS011;51680;49.806;18.774;2022-12-10T03:35:44;215.98;;;34.85;;
41043;SDS011;51680;49.806;18.774;2022-12-10T03:38:47;272.77;;;35.90;;
41043;SDS011;51680;49.806;18.774;2022-12-10T03:41:48;159.13;;;34.05;;
41043;SDS011;51680;49.806;18.774;2022-12-10T03:44:50;274.52;;;35.83;;
41043;SDS011;51680;49.806;18.774;2022-12-10T03:47:54;223.88;;;30.10;;
41043;SDS011;51680;49.806;18.774;2022-12-10T03:50:56;228.93;;;30.95;;
41043;SDS011;51680;49.806;18.774;2022-12-10T03:53:58;386.60;;;33.70;;
41043;SDS011;51680;49.806;18.774;2022-12-10T03:56:59;584.35;;;36.28;;
41043;SDS011;51680;49.806;18.774;2022-12-10T04:00:02;105.57;;;28.70;;
41043;SDS011;51680;49.806;18.774;2022-12-10T04:03:13;144.52;;;39.38;;
41043;SDS011;51680;49.806;18.774;2022-12-10T04:06:16;134.65;;;31.30;;
41043;SDS011;51680;49.806;18.774;2022-12-10T04:09:20;232.32;;;34.97;;
41043;SDS011;51680;49.806;18.774;2022-12-10T04:12:22;208.07;;;28.70;;
41043;SDS011;51680;49.806;18.774;2022-12-10T04:15:23;194.60;;;28.73;;
41043;SDS011;51680;49.806;18.774;2022-12-10T04:18:44;146.65;;;35.95;;
41043;SDS011;51680;49.806;18.774;2022-12-10T04:22:04;116.25;;;29.42;;
41043;SDS011;51680;49.806;18.774;2022-12-10T04:25:35;115.82;;;30.45;;
41043;SDS011;51680;49.806;18.774;2022-12-10T04:28:54;122.07;;;31.27;;
41043;SDS011;51680;49.806;18.774;2022-12-10T04:31:56;186.13;;;34.88;;
41043;SDS011;51680;49.806;18.774;2022-12-10T04:35:00;226.90;;;39.20;;
41043;SDS011;51680;49.806;18.774;2022-12-10T04:38:01;169.43;;;37.78;;
41043;SDS011;51680;49.806;18.774;2022-12-10T04:41:03;101.55;;;31.77;;
41043;SDS011;51680;49.806;18.774;2022-12-10T04:44:15;399.67;;;38.63;;
41043;SDS011;51680;49.806;18.774;2022-12-10T04:47:35;128.32;;;30.35;;
41043;SDS011;51680;49.806;18.774;2022-12-10T04:50:39;99.88;;;26.05;;
41043;SDS011;51680;49.806;18.774;2022-12-10T04:53:40;179.20;;;29.50;;
41043;SDS011;51680;49.806;18.774;2022-12-10T04:56:42;296.27;;;30.80;;
41043;SDS011;51680;49.806;18.774;2022-12-10T04:59:44;357.10;;;45.22;;
41043;SDS011;51680;49.806;18.774;2022-12-10T05:02:47;165.15;;;31.80;;
41043;SDS011;51680;49.806;18.774;2022-12-10T05:05:51;207.95;;;30.05;;
41043;SDS011;51680;49.806;18.774;2022-12-10T05:08:52;348.08;;;39.58;;
41043;SDS011;51680;49.806;18.774;2022-12-10T05:11:55;292.15;;;34.85;;
41043;SDS011;51680;49.806;18.774;2022-12-10T05:14:57;332.95;;;34.80;;
41043;SDS011;51680;49.806;18.774;2022-12-10T05:17:59;179.98;;;29.85;;
41043;SDS011;51680;49.806;18.774;2022-12-10T05:21:03;388.52;;;34.72;;
41043;SDS011;51680;49.806;18.774;2022-12-10T05:24:06;259.90;;;29.00;;
41043;SDS011;51680;49.806;18.774;2022-12-10T05:27:07;155.48;;;26.00;;
41043;SDS011;51680;49.806;18.774;2022-12-10T05:30:09;390.20;;;31.58;;
41043;SDS011;51680;49.806;18.774;2022-12-10T05:33:11;210.95;;;28.77;;
41043;SDS011;51680;49.806;18.774;2022-12-10T05:36:16;287.77;;;31.38;;
41043;SDS011;51680;49.806;18.774;2022-12-10T05:39:19;170.18;;;26.73;;
41043;SDS011;51680;49.806;18.774;2022-12-10T05:42:21;163.93;;;28.90;;
41043;SDS011;51680;49.806;18.774;2022-12-10T05:45:22;138.82;;;29.58;;
41043;SDS011;51680;49.806;18.774;2022-12-10T05:48:24;100.10;;;29.55;;
41043;SDS011;51680;49.806;18.774;2022-12-10T05:51:28;165.68;;;28.90;;
41043;SDS011;51680;49.806;18.774;2022-12-10T05:54:31;120.18;;;30.92;;
41043;SDS011;51680;49.806;18.774;2022-12-10T05:57:34;128.70;;;25.33;;
41043;SDS011;51680;49.806;18.774;2022-12-10T06:00:38;75.63;;;24.38;;
41043;SDS011;51680;49.806;18.774;2022-12-10T06:03:40;75.05;;;23.88;;
41043;SDS011;51680;49.806;18.774;2022-12-10T06:06:44;195.93;;;30.38;;
41043;SDS011;51680;49.806;18.774;2022-12-10T06:09:47;123.10;;;26.63;;
41043;SDS011;51680;49.806;18.774;2022-12-10T06:12:49;132.70;;;37.03;;
41043;SDS011;51680;49.806;18.774;2022-12-10T06:15:51;267.63;;;28.08;;
41043;SDS011;51680;49.806;18.774;2022-12-10T06:18:53;221.35;;;28.73;;
41043;SDS011;51680;49.806;18.774;2022-12-10T06:21:56;276.10;;;33.42;;
41043;SDS011;51680;49.806;18.774;2022-12-10T06:24:58;94.70;;;31.52;;
41043;SDS011;51680;49.806;18.774;2022-12-10T06:28:00;240.30;;;29.48;;
41043;SDS011;51680;49.806;18.774;2022-12-10T06:31:02;168.80;;;27.00;;
41043;SDS011;51680;49.806;18.774;2022-12-10T06:34:04;138.23;;;25.08;;
41043;SDS011;51680;49.806;18.774;2022-12-10T06:37:07;168.93;;;25.23;;
41043;SDS011;51680;49.806;18.774;2022-12-10T06:40:10;212.40;;;26.25;;
41043;SDS011;51680;49.806;18.774;2022-12-10T06:43:12;153.90;;;26.75;;
41043;SDS011;51680;49.806;18.774;2022-12-10T06:46:14;205.45;;;26.00;;
41043;SDS011;51680;49.806;18.774;2022-12-10T06:49:17;183.05;;;27.27;;
41043;SDS011;51680;49.806;18.774;2022-12-10T06:52:20;156.05;;;27.55;;
41043;SDS011;51680;49.806;18.774;2022-12-10T06:55:22;167.02;;;26.92;;
41043;SDS011;51680;49.806;18.774;2022-12-10T06:58:24;208.32;;;26.92;;
41043;SDS011;51680;49.806;18.774;2022-12-10T07:01:27;69.30;;;25.33;;
41043;SDS011;51680;49.806;18.774;2022-12-10T07:04:29;348.58;;;31.02;;
41043;SDS011;51680;49.806;18.774;2022-12-10T07:07:33;114.72;;;26.33;;
41043;SDS011;51680;49.806;18.774;2022-12-10T07:10:36;165.48;;;26.65;;
41043;SDS011;51680;49.806;18.774;2022-12-10T07:13:38;148.90;;;29.23;;
41043;SDS011;51680;49.806;18.774;2022-12-10T07:16:40;158.85;;;32.80;;
41043;SDS011;51680;49.806;18.774;2022-12-10T07:19:42;105.35;;;31.60;;
41043;SDS011;51680;49.806;18.774;2022-12-10T07:22:47;121.07;;;28.40;;
41043;SDS011;51680;49.806;18.774;2022-12-10T07:25:49;179.38;;;28.95;;
41043;SDS011;51680;49.806;18.774;2022-12-10T07:28:50;171.48;;;29.95;;
41043;SDS011;51680;49.806;18.774;2022-12-10T07:31:53;128.05;;;29.13;;
41043;SDS011;51680;49.806;18.774;2022-12-10T07:34:55;223.63;;;41.75;;
41043;SDS011;51680;49.806;18.774;2022-12-10T07:37:58;274.42;;;34.40;;
41043;SDS011;51680;49.806;18.774;2022-12-10T07:41:02;250.18;;;36.05;;
41043;SDS011;51680;49.806;18.774;2022-12-10T07:47:06;238.25;;;30.63;;
41043;SDS011;51680;49.806;18.774;2022-12-10T07:50:08;107.28;;;27.25;;
41043;SDS011;51680;49.806;18.774;2022-12-10T07:53:11;88.20;;;26.67;;
41043;SDS011;51680;49.806;18.774;2022-12-10T07:56:13;141.80;;;28.70;;
41043;SDS011;51680;49.806;18.774;2022-12-10T07:59:15;103.90;;;29.33;;
41043;SDS011;51680;49.806;18.774;2022-12-10T08:02:17;170.07;;;31.88;;
41043;SDS011;51680;49.806;18.774;2022-12-10T08:05:19;289.05;;;37.00;;
41043;SDS011;51680;49.806;18.774;2022-12-10T08:08:22;57.25;;;29.00;;
41043;SDS011;51680;49.806;18.774;2022-12-10T08:11:23;102.00;;;33.50;;
41043;SDS011;51680;49.806;18.774;2022-12-10T08:14:26;76.90;;;27.93;;
41043;SDS011;51680;49.806;18.774;2022-12-10T08:17:28;37.75;;;22.13;;
41043;SDS011;51680;49.806;18.774;2022-12-10T08:20:30;44.15;;;26.02;;
41043;SDS011;51680;49.806;18.774;2022-12-10T08:23:33;57.10;;;26.02;;
41043;SDS011;51680;49.806;18.774;2022-12-10T08:26:36;40.63;;;24.45;;
41043;SDS011;51680;49.806;18.774;2022-12-10T08:29:38;60.10;;;26.63;;
41043;SDS011;51680;49.806;18.774;2022-12-10T08:32:40;36.80;;;23.02;;
41043;SDS011;51680;49.806;18.774;2022-12-10T08:35:42;37.63;;;22.98;;
41043;SDS011;51680;49.806;18.774;2022-12-10T08:38:45;39.90;;;23.45;;
41043;SDS011;51680;49.806;18.774;2022-12-10T08:41:47;40.38;;;23.48;;
41043;SDS011;51680;49.806;18.774;2022-12-10T08:44:49;39.70;;;25.08;;
41043;SDS011;51680;49.806;18.774;2022-12-10T08:47:51;48.00;;;28.52;;
41043;SDS011;51680;49.806;18.774;2022-12-10T08:50:53;42.35;;;24.38;;
41043;SDS011;51680;49.806;18.774;2022-12-10T08:53:57;44.45;;;26.27;;
41043;SDS011;51680;49.806;18.774;2022-12-10T08:56:59;47.13;;;27.52;;
41043;SDS011;51680;49.806;18.774;2022-12-10T09:00:02;50.93;;;26.50;;
41043;SDS011;51680;49.806;18.774;2022-12-10T09:03:05;43.05;;;24.27;;
41043;SDS011;51680;49.806;18.774;2022-12-10T09:06:08;44.00;;;25.25;;
41043;SDS011;51680;49.806;18.774;2022-12-10T09:09:31;40.42;;;23.80;;
41043;SDS011;51680;49.806;18.774;2022-12-10T09:12:33;54.08;;;26.38;;
41043;SDS011;51680;49.806;18.774;2022-12-10T09:15:35;38.58;;;24.00;;
41043;SDS011;51680;49.806;18.774;2022-12-10T09:18:37;41.63;;;25.60;;
41043;SDS011;51680;49.806;18.774;2022-12-10T09:21:58;41.30;;;24.65;;
41043;SDS011;51680;49.806;18.774;2022-12-10T09:25:01;42.10;;;22.67;;
41043;SDS011;51680;49.806;18.774;2022-12-10T09:28:03;41.10;;;23.70;;
41043;SDS011;51680;49.806;18.774;2022-12-10T09:31:05;42.22;;;24.10;;
41043;SDS011;51680;49.806;18.774;2022-12-10T09:34:27;49.60;;;25.33;;
41043;SDS011;51680;49.806;18.774;2022-12-10T09:37:28;40.60;;;24.95;;
41043;SDS011;51680;49.806;18.774;2022-12-10T09:40:34;39.45;;;24.48;;
41043;SDS011;51680;49.806;18.774;2022-12-10T09:43:42;53.58;;;28.58;;
41043;SDS011;51680;49.806;18.774;2022-12-10T09:46:48;46.80;;;26.60;;
41043;SDS011;51680;49.806;18.774;2022-12-10T09:49:56;46.20;;;25.60;;
41043;SDS011;51680;49.806;18.774;2022-12-10T09:53:08;48.03;;;26.48;;
41043;SDS011;51680;49.806;18.774;2022-12-10T09:56:17;41.78;;;23.80;;
41043;SDS011;51680;49.806;18.774;2022-12-10T09:59:23;33.42;;;20.83;;
41043;SDS011;51680;49.806;18.774;2022-12-10T10:02:31;32.42;;;19.15;;
41043;SDS011;51680;49.806;18.774;2022-12-10T10:05:34;31.58;;;20.17;;
41043;SDS011;51680;49.806;18.774;2022-12-10T10:08:39;33.80;;;21.23;;
41043;SDS011;51680;49.806;18.774;2022-12-10T10:11:45;33.03;;;19.73;;
41043;SDS011;51680;49.806;18.774;2022-12-10T10:14:47;32.13;;;20.45;;
41043;SDS011;51680;49.806;18.774;2022-12-10T10:17:49;30.90;;;20.15;;
41043;SDS011;51680;49.806;18.774;2022-12-10T10:20:55;30.33;;;18.50;;
41043;SDS011;51680;49.806;18.774;2022-12-10T10:23:58;37.97;;;23.25;;
41043;SDS011;51680;49.806;18.774;2022-12-10T10:27:08;30.70;;;17.73;;
41043;SDS011;51680;49.806;18.774;2022-12-10T10:30:14;33.25;;;18.77;;
41043;SDS011;51680;49.806;18.774;2022-12-10T10:33:17;37.05;;;22.23;;
41043;SDS011;51680;49.806;18.774;2022-12-10T10:36:22;35.38;;;19.75;;
41043;SDS011;51680;49.806;18.774;2022-12-10T10:39:27;34.67;;;21.08;;
41043;SDS011;51680;49.806;18.774;2022-12-10T10:42:35;40.08;;;23.17;;
41043;SDS011;51680;49.806;18.774;2022-12-10T10:45:39;32.15;;;19.00;;
41043;SDS011;51680;49.806;18.774;2022-12-10T10:48:43;33.50;;;18.30;;
41043;SDS011;51680;49.806;18.774;2022-12-10T10:51:45;35.80;;;19.65;;
41043;SDS011;51680;49.806;18.774;2022-12-10T10:54:48;40.03;;;20.75;;
41043;SDS011;51680;49.806;18.774;2022-12-10T10:57:52;31.00;;;18.75;;
41043;SDS011;51680;49.806;18.774;2022-12-10T11:00:55;38.05;;;21.25;;
41043;SDS011;51680;49.806;18.774;2022-12-10T11:03:58;32.70;;;18.80;;
41043;SDS011;51680;49.806;18.774;2022-12-10T11:07:02;50.28;;;25.00;;
41043;SDS011;51680;49.806;18.774;2022-12-10T11:10:16;51.75;;;27.08;;
41043;SDS011;51680;49.806;18.774;2022-12-10T11:13:24;37.50;;;20.85;;
41043;SDS011;51680;49.806;18.774;2022-12-10T11:16:27;38.08;;;22.55;;
41043;SDS011;51680;49.806;18.774;2022-12-10T11:19:29;46.38;;;23.70;;
41043;SDS011;51680;49.806;18.774;2022-12-10T11:22:32;39.67;;;21.15;;
41043;SDS011;51680;49.806;18.774;2022-12-10T11:25:38;34.15;;;21.42;;
41043;SDS011;51680;49.806;18.774;2022-12-10T11:28:54;37.90;;;22.13;;
41043;SDS011;51680;49.806;18.774;2022-12-10T11:32:08;40.53;;;23.45;;
41043;SDS011;51680;49.806;18.774;2022-12-10T11:35:23;52.70;;;28.05;;
41043;SDS011;51680;49.806;18.774;2022-12-10T11:38:59;49.40;;;27.15;;
41043;SDS011;51680;49.806;18.774;2022-12-10T11:42:08;45.60;;;26.10;;
41043;SDS011;51680;49.806;18.774;2022-12-10T11:45:24;69.97;;;33.92;;
41043;SDS011;51680;49.806;18.774;2022-12-10T11:48:39;43.42;;;25.20;;
41043;SDS011;51680;49.806;18.774;2022-12-10T11:51:52;33.90;;;20.40;;
41043;SDS011;51680;49.806;18.774;2022-12-10T11:55:03;41.33;;;22.38;;
41043;SDS011;51680;49.806;18.774;2022-12-10T11:58:17;33.38;;;20.17;;
41043;SDS011;51680;49.806;18.774;2022-12-10T12:01:41;34.90;;;20.58;;
41043;SDS011;51680;49.806;18.774;2022-12-10T12:05:19;35.60;;;20.17;;
41043;SDS011;51680;49.806;18.774;2022-12-10T12:08:34;37.90;;;20.77;;
41043;SDS011;51680;49.806;18.774;2022-12-10T12:11:49;38.05;;;20.30;;
41043;SDS011;51680;49.806;18.774;2022-12-10T12:15:02;39.17;;;21.35;;
41043;SDS011;51680;49.806;18.774;2022-12-10T12:18:13;31.50;;;18.67;;
41043;SDS011;51680;49.806;18.774;2022-12-10T12:21:19;35.90;;;20.15;;
41043;SDS011;51680;49.806;18.774;2022-12-10T12:24:22;39.40;;;19.73;;
41043;SDS011;51680;49.806;18.774;2022-12-10T12:27:33;33.58;;;19.90;;
41043;SDS011;51680;49.806;18.774;2022-12-10T12:30:39;37.08;;;20.67;;
41043;SDS011;51680;49.806;18.774;2022-12-10T12:33:47;34.17;;;19.00;;
41043;SDS011;51680;49.806;18.774;2022-12-10T12:37:12;36.22;;;19.73;;
41043;SDS011;51680;49.806;18.774;2022-12-10T12:40:20;33.45;;;20.00;;
41043;SDS011;51680;49.806;18.774;2022-12-10T12:43:32;40.33;;;20.67;;
41043;SDS011;51680;49.806;18.774;2022-12-10T12:46:41;39.78;;;21.00;;
41043;SDS011;51680;49.806;18.774;2022-12-10T12:49:46;41.25;;;21.25;;
41043;SDS011;51680;49.806;18.774;2022-12-10T12:52:51;36.80;;;21.13;;
41043;SDS011;51680;49.806;18.774;2022-12-10T12:55:56;37.20;;;20.38;;
41043;SDS011;51680;49.806;18.774;2022-12-10T12:59:08;48.78;;;24.88;;
41043;SDS011;51680;49.806;18.774;2022-12-10T13:02:22;40.00;;;21.85;;
41043;SDS011;51680;49.806;18.774;2022-12-10T13:05:35;35.13;;;20.93;;
41043;SDS011;51680;49.806;18.774;2022-12-10T13:08:42;35.15;;;19.50;;
41043;SDS011;51680;49.806;18.774;2022-12-10T13:11:46;38.20;;;22.33;;
41043;SDS011;51680;49.806;18.774;2022-12-10T13:15:18;36.47;;;20.15;;
41043;SDS011;51680;49.806;18.774;2022-12-10T13:18:23;38.35;;;19.02;;
41043;SDS011;51680;49.806;18.774;2022-12-10T13:21:39;36.17;;;19.50;;
41043;SDS011;51680;49.806;18.774;2022-12-10T13:28:21;41.08;;;21.45;;
41043;SDS011;51680;49.806;18.774;2022-12-10T13:31:35;38.28;;;20.38;;
41043;SDS011;51680;49.806;18.774;2022-12-10T13:34:38;73.13;;;24.52;;
41043;SDS011;51680;49.806;18.774;2022-12-10T13:37:55;71.75;;;23.52;;
41043;SDS011;51680;49.806;18.774;2022-12-10T13:41:00;68.75;;;25.77;;
41043;SDS011;51680;49.806;18.774;2022-12-10T13:44:31;41.22;;;20.67;;
41043;SDS011;51680;49.806;18.774;2022-12-10T13:47:42;48.45;;;21.67;;
41043;SDS011;51680;49.806;18.774;2022-12-10T13:50:48;93.97;;;25.48;;
41043;SDS011;51680;49.806;18.774;2022-12-10T13:54:04;78.38;;;24.88;;
41043;SDS011;51680;49.806;18.774;2022-12-10T13:57:45;90.45;;;23.90;;
41043;SDS011;51680;49.806;18.774;2022-12-10T14:00:56;75.15;;;22.35;;
41043;SDS011;51680;49.806;18.774;2022-12-10T14:07:42;120.88;;;25.35;;
41043;SDS011;51680;49.806;18.774;2022-12-10T14:10:49;122.05;;;25.85;;
41043;SDS011;51680;49.806;18.774;2022-12-10T14:13:53;130.60;;;25.77;;
41043;SDS011;51680;49.806;18.774;2022-12-10T14:16:59;317.42;;;31.73;;
41043;SDS011;51680;49.806;18.774;2022-12-10T14:20:02;285.88;;;32.22;;
41043;SDS011;51680;49.806;18.774;2022-12-10T14:23:19;310.20;;;34.22;;
41043;SDS011;51680;49.806;18.774;2022-12-10T14:26:39;468.35;;;40.17;;
41043;SDS011;51680;49.806;18.774;2022-12-10T14:29:44;158.35;;;29.88;;
41043;SDS011;51680;49.806;18.774;2022-12-10T14:32:47;150.32;;;32.28;;
41043;SDS011;51680;49.806;18.774;2022-12-10T14:35:51;260.45;;;34.95;;
41043;SDS011;51680;49.806;18.774;2022-12-10T14:41:58;356.27;;;34.08;;
41043;SDS011;51680;49.806;18.774;2022-12-10T14:45:03;345.65;;;35.83;;
41043;SDS011;51680;49.806;18.774;2022-12-10T14:48:09;342.45;;;32.88;;
41043;SDS011;51680;49.806;18.774;2022-12-10T14:51:13;408.42;;;34.20;;
41043;SDS011;51680;49.806;18.774;2022-12-10T14:54:26;313.35;;;27.95;;
41043;SDS011;51680;49.806;18.774;2022-12-10T14:57:31;207.20;;;25.42;;
41043;SDS011;51680;49.806;18.774;2022-12-10T15:00:36;355.13;;;27.25;;
41043;SDS011;51680;49.806;18.774;2022-12-10T15:03:43;410.48;;;31.30;;
41043;SDS011;51680;49.806;18.774;2022-12-10T15:06:47;229.95;;;28.73;;
41043;SDS011;51680;49.806;18.774;2022-12-10T15:09:50;242.68;;;27.60;;
41043;SDS011;51680;49.806;18.774;2022-12-10T15:12:55;410.60;;;30.17;;
41043;SDS011;51680;49.806;18.774;2022-12-10T15:19:06;312.48;;;27.90;;
41043;SDS011;51680;49.806;18.774;2022-12-10T15:22:20;354.40;;;29.20;;
41043;SDS011;51680;49.806;18.774;2022-12-10T15:25:25;118.38;;;23.33;;
41043;SDS011;51680;49.806;18.774;2022-12-10T15:28:30;98.18;;;24.85;;
41043;SDS011;51680;49.806;18.774;2022-12-10T15:31:32;143.45;;;26.52;;
41043;SDS011;51680;49.806;18.774;2022-12-10T15:34:37;157.65;;;25.83;;
41043;SDS011;51680;49.806;18.774;2022-12-10T15:37:42;270.58;;;28.08;;
41043;SDS011;51680;49.806;18.774;2022-12-10T15:40:45;259.15;;;28.17;;
41043;SDS011;51680;49.806;18.774;2022-12-10T15:43:58;333.67;;;30.92;;
41043;SDS011;51680;49.806;18.774;2022-12-10T15:47:08;246.98;;;28.63;;
41043;SDS011;51680;49.806;18.774;2022-12-10T15:50:14;458.65;;;31.13;;
41043;SDS011;51680;49.806;18.774;2022-12-10T15:53:20;397.92;;;33.70;;
41043;SDS011;51680;49.806;18.774;2022-12-10T15:56:26;277.63;;;29.05;;
41043;SDS011;51680;49.806;18.774;2022-12-10T15:59:29;179.23;;;26.35;;
41043;SDS011;51680;49.806;18.774;2022-12-10T16:02:34;395.25;;;32.90;;
41043;SDS011;51680;49.806;18.774;2022-12-10T16:05:38;430.85;;;33.03;;
41043;SDS011;51680;49.806;18.774;2022-12-10T16:08:40;386.95;;;32.88;;
41043;SDS011;51680;49.806;18.774;2022-12-10T16:11:42;331.85;;;31.35;;
41043;SDS011;51680;49.806;18.774;2022-12-10T16:14:46;331.25;;;33.30;;
41043;SDS011;51680;49.806;18.774;2022-12-10T16:17:51;450.23;;;34.80;;
41043;SDS011;51680;49.806;18.774;2022-12-10T16:20:53;261.15;;;31.38;;
41043;SDS011;51680;49.806;18.774;2022-12-10T16:23:54;301.33;;;29.73;;
41043;SDS011;51680;49.806;18.774;2022-12-10T16:26:56;205.55;;;29.23;;
41043;SDS011;51680;49.806;18.774;2022-12-10T16:30:00;261.17;;;28.35;;
41043;SDS011;51680;49.806;18.774;2022-12-10T16:33:02;420.13;;;32.20;;
41043;SDS011;51680;49.806;18.774;2022-12-10T16:36:04;446.35;;;31.38;;
41043;SDS011;51680;49.806;18.774;2022-12-10T16:39:06;420.05;;;31.55;;
41043;SDS011;51680;49.806;18.774;2022-12-10T16:42:09;403.15;;;31.80;;
41043;SDS011;51680;49.806;18.774;2022-12-10T16:45:15;283.38;;;26.95;;
41043;SDS011;51680;49.806;18.774;2022-12-10T16:48:19;290.58;;;27.33;;
41043;SDS011;51680;49.806;18.774;2022-12-10T16:51:22;487.38;;;34.28;;
41043;SDS011;51680;49.806;18.774;2022-12-10T16:54:26;390.58;;;31.17;;
41043;SDS011;51680;49.806;18.774;2022-12-10T16:57:27;538.28;;;35.17;;
41043;SDS011;51680;49.806;18.774;2022-12-10T17:00:31;189.07;;;26.95;;
41043;SDS011;51680;49.806;18.774;2022-12-10T17:03:32;300.00;;;28.30;;
41043;SDS011;51680;49.806;18.774;2022-12-10T17:06:35;425.15;;;31.92;;
41043;SDS011;51680;49.806;18.774;2022-12-10T17:09:37;270.30;;;25.73;;
41043;SDS011;51680;49.806;18.774;2022-12-10T17:12:39;426.70;;;31.83;;
41043;SDS011;51680;49.806;18.774;2022-12-10T17:15:44;373.73;;;31.52;;
41043;SDS011;51680;49.806;18.774;2022-12-10T17:18:46;369.58;;;32.25;;
41043;SDS011;51680;49.806;18.774;2022-12-10T17:21:47;262.58;;;28.08;;
41043;SDS011;51680;49.806;18.774;2022-12-10T17:24:49;370.00;;;30.52;;
41043;SDS011;51680;49.806;18.774;2022-12-10T17:27:51;252.77;;;28.38;;
41043;SDS011;51680;49.806;18.774;2022-12-10T17:30:54;283.98;;;28.30;;
41043;SDS011;51680;49.806;18.774;2022-12-10T17:33:57;347.42;;;31.38;;
41043;SDS011;51680;49.806;18.774;2022-12-10T17:36:59;288.15;;;29.95;;
41043;SDS011;51680;49.806;18.774;2022-12-10T17:40:00;462.00;;;33.65;;
41043;SDS011;51680;49.806;18.774;2022-12-10T17:43:03;264.45;;;29.75;;
41043;SDS011;51680;49.806;18.774;2022-12-10T17:46:07;265.60;;;28.77;;
41043;SDS011;51680;49.806;18.774;2022-12-10T17:49:10;466.25;;;33.75;;
41043;SDS011;51680;49.806;18.774;2022-12-10T17:52:14;166.20;;;27.48;;
41043;SDS011;51680;49.806;18.774;2022-12-10T17:55:16;334.08;;;32.38;;
41043;SDS011;51680;49.806;18.774;2022-12-10T17:58:19;235.68;;;27.02;;
41043;SDS011;51680;49.806;18.774;2022-12-10T18:01:24;308.60;;;31.02;;
41043;SDS011;51680;49.806;18.774;2022-12-10T18:04:27;299.75;;;30.27;;
41043;SDS011;51680;49.806;18.774;2022-12-10T18:07:29;171.98;;;27.30;;